KCMI/CMI METAR and TAF weather

Enter ICAO airport designator
Station Type Date Time Source
KCMI METAR 2019/05/25 08:53 UTC NOAA

KCMI 250853Z AUTO 21012KT 10SM CLR 23/18 A2994 RMK AO2 SLP132 T02280183 55010


Station Type Date Time Source
KCMI Decoded METAR 2019/05/25 08:53 UTC NOAA

UNIV OF ILLINOIS-WILLARD, IL, United States (KCMI) 40-02N 088-16W 228M
May 25, 2019 - 04:53 AM EDT / 2019.05.25 0853 UTC
Wind: from the SSW (210 degrees) at 14 MPH (12 KT):0
Visibility: 10 mile(s):0
Sky conditions: clear
Temperature: 73.0 F (22.8 C)
Dew Point: 64.9 F (18.3 C)
Relative Humidity: 75%
Pressure (altimeter): 29.94 in. Hg (1013 hPa)
Pressure tendency: 0.03 inches (1.0 hPa) lower than three hours ago
ob: KCMI 250853Z AUTO 21012KT 10SM CLR 23/18 A2994 RMK AO2 SLP132 T02280183 55010
cycle: 9

Station Type Date Time Source
KCMI TAF 2019/05/25 06:22 UTC NOAA

TAF KCMI 250520Z 2506/2606 19010KT P6SM SCT250
FM251400 22010KT P6SM VCTS BKN080CB
FM251800 24013G21KT P6SM VCTS BKN070CB
FM260000 21010KT P6SM BKN100

Example: see airport list